sensor_id;sensor_type;location;lat;lon;timestamp;P1;durP1;ratioP1;P2;durP2;ratioP2
69750;SDS011;57335;52.288;6.056;2023-12-20T00:01:01;14.15;;;4.22;;
69750;SDS011;57335;52.288;6.056;2023-12-20T00:03:27;12.63;;;4.57;;
69750;SDS011;57335;52.288;6.056;2023-12-20T00:05:58;11.43;;;4.30;;
69750;SDS011;57335;52.288;6.056;2023-12-20T00:08:25;14.18;;;4.35;;
69750;SDS011;57335;52.288;6.056;2023-12-20T00:10:51;27.45;;;4.72;;
69750;SDS011;57335;52.288;6.056;2023-12-20T00:13:18;14.05;;;3.53;;
69750;SDS011;57335;52.288;6.056;2023-12-20T00:15:44;14.35;;;3.30;;
69750;SDS011;57335;52.288;6.056;2023-12-20T00:18:11;12.32;;;3.05;;
69750;SDS011;57335;52.288;6.056;2023-12-20T00:20:37;12.23;;;3.38;;
69750;SDS011;57335;52.288;6.056;2023-12-20T00:23:04;13.85;;;2.55;;
69750;SDS011;57335;52.288;6.056;2023-12-20T00:25:31;11.75;;;2.60;;
69750;SDS011;57335;52.288;6.056;2023-12-20T00:27:57;15.05;;;3.22;;
69750;SDS011;57335;52.288;6.056;2023-12-20T00:30:24;15.98;;;3.40;;
69750;SDS011;57335;52.288;6.056;2023-12-20T00:32:50;10.00;;;2.38;;
69750;SDS011;57335;52.288;6.056;2023-12-20T00:35:17;10.00;;;2.30;;
69750;SDS011;57335;52.288;6.056;2023-12-20T00:40:10;14.00;;;2.30;;
69750;SDS011;57335;52.288;6.056;2023-12-20T00:42:37;8.32;;;1.90;;
69750;SDS011;57335;52.288;6.056;2023-12-20T00:45:04;9.68;;;1.98;;
69750;SDS011;57335;52.288;6.056;2023-12-20T00:47:31;8.65;;;1.75;;
69750;SDS011;57335;52.288;6.056;2023-12-20T00:49:58;10.95;;;1.92;;
69750;SDS011;57335;52.288;6.056;2023-12-20T00:52:25;9.18;;;2.08;;
69750;SDS011;57335;52.288;6.056;2023-12-20T00:54:51;13.77;;;2.03;;
69750;SDS011;57335;52.288;6.056;2023-12-20T00:57:18;10.20;;;2.40;;
69750;SDS011;57335;52.288;6.056;2023-12-20T00:59:44;9.50;;;1.92;;
69750;SDS011;57335;52.288;6.056;2023-12-20T01:02:11;11.93;;;2.00;;
69750;SDS011;57335;52.288;6.056;2023-12-20T01:04:37;13.50;;;2.00;;
69750;SDS011;57335;52.288;6.056;2023-12-20T01:07:04;18.58;;;2.40;;
69750;SDS011;57335;52.288;6.056;2023-12-20T01:09:31;8.88;;;2.15;;
69750;SDS011;57335;52.288;6.056;2023-12-20T01:11:57;11.23;;;2.13;;
69750;SDS011;57335;52.288;6.056;2023-12-20T01:14:24;13.38;;;2.30;;
69750;SDS011;57335;52.288;6.056;2023-12-20T01:16:50;12.27;;;2.08;;
69750;SDS011;57335;52.288;6.056;2023-12-20T01:19:17;10.13;;;2.22;;
69750;SDS011;57335;52.288;6.056;2023-12-20T01:21:43;10.18;;;1.83;;
69750;SDS011;57335;52.288;6.056;2023-12-20T01:24:10;14.32;;;2.20;;
69750;SDS011;57335;52.288;6.056;2023-12-20T01:26:37;8.68;;;2.10;;
69750;SDS011;57335;52.288;6.056;2023-12-20T01:29:03;13.10;;;2.58;;
69750;SDS011;57335;52.288;6.056;2023-12-20T01:31:30;10.75;;;1.85;;
69750;SDS011;57335;52.288;6.056;2023-12-20T01:33:56;11.88;;;1.73;;
69750;SDS011;57335;52.288;6.056;2023-12-20T01:36:23;9.43;;;1.92;;
69750;SDS011;57335;52.288;6.056;2023-12-20T01:38:49;11.43;;;2.13;;
69750;SDS011;57335;52.288;6.056;2023-12-20T01:41:15;15.40;;;2.70;;
69750;SDS011;57335;52.288;6.056;2023-12-20T01:43:42;8.85;;;1.60;;
69750;SDS011;57335;52.288;6.056;2023-12-20T01:46:17;10.43;;;2.42;;
69750;SDS011;57335;52.288;6.056;2023-12-20T01:48:43;10.55;;;1.90;;
69750;SDS011;57335;52.288;6.056;2023-12-20T01:51:10;13.07;;;2.10;;
69750;SDS011;57335;52.288;6.056;2023-12-20T01:53:38;10.40;;;2.30;;
69750;SDS011;57335;52.288;6.056;2023-12-20T01:56:06;12.05;;;1.80;;
69750;SDS011;57335;52.288;6.056;2023-12-20T01:58:33;11.07;;;1.92;;
69750;SDS011;57335;52.288;6.056;2023-12-20T02:01:00;13.65;;;2.03;;
69750;SDS011;57335;52.288;6.056;2023-12-20T02:03:26;8.90;;;1.50;;
69750;SDS011;57335;52.288;6.056;2023-12-20T02:05:53;16.25;;;2.00;;
69750;SDS011;57335;52.288;6.056;2023-12-20T02:08:19;8.82;;;1.70;;
69750;SDS011;57335;52.288;6.056;2023-12-20T02:10:46;10.50;;;1.95;;
69750;SDS011;57335;52.288;6.056;2023-12-20T02:13:13;13.88;;;2.20;;
69750;SDS011;57335;52.288;6.056;2023-12-20T02:15:40;11.48;;;1.92;;
69750;SDS011;57335;52.288;6.056;2023-12-20T02:18:08;11.38;;;2.00;;
69750;SDS011;57335;52.288;6.056;2023-12-20T02:20:35;14.55;;;2.20;;
69750;SDS011;57335;52.288;6.056;2023-12-20T02:23:02;14.07;;;2.47;;
69750;SDS011;57335;52.288;6.056;2023-12-20T02:25:28;14.30;;;2.63;;
69750;SDS011;57335;52.288;6.056;2023-12-20T02:27:55;12.57;;;2.20;;
69750;SDS011;57335;52.288;6.056;2023-12-20T02:30:21;14.40;;;2.30;;
69750;SDS011;57335;52.288;6.056;2023-12-20T02:32:49;8.93;;;1.70;;
69750;SDS011;57335;52.288;6.056;2023-12-20T02:35:16;10.70;;;1.85;;
69750;SDS011;57335;52.288;6.056;2023-12-20T02:37:43;12.60;;;2.28;;
69750;SDS011;57335;52.288;6.056;2023-12-20T02:40:09;18.10;;;2.80;;
69750;SDS011;57335;52.288;6.056;2023-12-20T02:42:36;10.20;;;2.35;;
69750;SDS011;57335;52.288;6.056;2023-12-20T02:45:03;9.30;;;2.10;;
69750;SDS011;57335;52.288;6.056;2023-12-20T02:47:30;14.00;;;2.10;;
69750;SDS011;57335;52.288;6.056;2023-12-20T02:49:57;14.70;;;2.28;;
69750;SDS011;57335;52.288;6.056;2023-12-20T02:52:24;13.80;;;2.20;;
69750;SDS011;57335;52.288;6.056;2023-12-20T02:54:51;13.10;;;2.05;;
69750;SDS011;57335;52.288;6.056;2023-12-20T02:57:17;15.68;;;2.28;;
69750;SDS011;57335;52.288;6.056;2023-12-20T03:02:10;11.43;;;2.05;;
69750;SDS011;57335;52.288;6.056;2023-12-20T03:04:37;11.88;;;2.45;;
69750;SDS011;57335;52.288;6.056;2023-12-20T03:07:03;10.88;;;1.75;;
69750;SDS011;57335;52.288;6.056;2023-12-20T03:09:30;12.15;;;2.00;;
69750;SDS011;57335;52.288;6.056;2023-12-20T03:12:12;14.98;;;2.67;;
69750;SDS011;57335;52.288;6.056;2023-12-20T03:14:38;14.60;;;2.13;;
69750;SDS011;57335;52.288;6.056;2023-12-20T03:17:05;11.77;;;2.20;;
69750;SDS011;57335;52.288;6.056;2023-12-20T03:19:31;13.55;;;2.83;;
69750;SDS011;57335;52.288;6.056;2023-12-20T03:21:58;19.02;;;2.28;;
69750;SDS011;57335;52.288;6.056;2023-12-20T03:24:27;11.18;;;2.20;;
69750;SDS011;57335;52.288;6.056;2023-12-20T03:26:53;13.85;;;2.50;;
69750;SDS011;57335;52.288;6.056;2023-12-20T03:29:20;11.93;;;2.45;;
69750;SDS011;57335;52.288;6.056;2023-12-20T03:31:46;9.13;;;2.08;;
69750;SDS011;57335;52.288;6.056;2023-12-20T03:34:13;17.35;;;2.00;;
69750;SDS011;57335;52.288;6.056;2023-12-20T03:36:40;7.80;;;2.25;;
69750;SDS011;57335;52.288;6.056;2023-12-20T03:39:06;14.50;;;2.58;;
69750;SDS011;57335;52.288;6.056;2023-12-20T03:41:33;17.80;;;3.03;;
69750;SDS011;57335;52.288;6.056;2023-12-20T03:43:59;16.10;;;2.65;;
69750;SDS011;57335;52.288;6.056;2023-12-20T03:46:26;16.75;;;2.20;;
69750;SDS011;57335;52.288;6.056;2023-12-20T03:48:52;16.38;;;2.92;;
69750;SDS011;57335;52.288;6.056;2023-12-20T03:51:19;11.85;;;2.60;;
69750;SDS011;57335;52.288;6.056;2023-12-20T03:53:46;14.90;;;2.17;;
69750;SDS011;57335;52.288;6.056;2023-12-20T03:56:13;16.88;;;3.05;;
69750;SDS011;57335;52.288;6.056;2023-12-20T03:58:39;13.43;;;2.78;;
69750;SDS011;57335;52.288;6.056;2023-12-20T04:01:09;9.93;;;2.40;;
69750;SDS011;57335;52.288;6.056;2023-12-20T04:03:38;12.82;;;2.78;;
69750;SDS011;57335;52.288;6.056;2023-12-20T04:06:05;14.25;;;3.15;;
69750;SDS011;57335;52.288;6.056;2023-12-20T04:08:31;10.68;;;2.10;;
69750;SDS011;57335;52.288;6.056;2023-12-20T04:10:58;9.77;;;2.42;;
69750;SDS011;57335;52.288;6.056;2023-12-20T04:13:24;15.05;;;2.85;;
69750;SDS011;57335;52.288;6.056;2023-12-20T04:15:51;13.25;;;2.45;;
69750;SDS011;57335;52.288;6.056;2023-12-20T04:18:18;10.60;;;2.67;;
69750;SDS011;57335;52.288;6.056;2023-12-20T04:20:44;16.08;;;2.13;;
69750;SDS011;57335;52.288;6.056;2023-12-20T04:23:11;15.98;;;2.65;;
69750;SDS011;57335;52.288;6.056;2023-12-20T04:25:38;15.75;;;2.90;;
69750;SDS011;57335;52.288;6.056;2023-12-20T04:28:04;12.40;;;2.47;;
69750;SDS011;57335;52.288;6.056;2023-12-20T04:30:31;14.35;;;2.63;;
69750;SDS011;57335;52.288;6.056;2023-12-20T04:32:57;17.83;;;2.45;;
69750;SDS011;57335;52.288;6.056;2023-12-20T04:35:24;13.52;;;2.70;;
69750;SDS011;57335;52.288;6.056;2023-12-20T04:37:51;16.15;;;2.33;;
69750;SDS011;57335;52.288;6.056;2023-12-20T04:40:17;23.67;;;2.55;;
69750;SDS011;57335;52.288;6.056;2023-12-20T04:42:44;12.85;;;2.20;;
69750;SDS011;57335;52.288;6.056;2023-12-20T04:45:10;12.25;;;2.35;;
69750;SDS011;57335;52.288;6.056;2023-12-20T04:47:39;16.73;;;2.55;;
69750;SDS011;57335;52.288;6.056;2023-12-20T04:50:05;19.83;;;2.78;;
69750;SDS011;57335;52.288;6.056;2023-12-20T04:52:33;11.00;;;2.42;;
69750;SDS011;57335;52.288;6.056;2023-12-20T04:55:00;17.60;;;2.88;;
69750;SDS011;57335;52.288;6.056;2023-12-20T04:57:26;16.35;;;3.15;;
69750;SDS011;57335;52.288;6.056;2023-12-20T04:59:52;15.35;;;2.30;;
69750;SDS011;57335;52.288;6.056;2023-12-20T05:02:19;14.32;;;2.38;;
69750;SDS011;57335;52.288;6.056;2023-12-20T05:04:45;24.58;;;2.95;;
69750;SDS011;57335;52.288;6.056;2023-12-20T05:07:12;12.38;;;2.20;;
69750;SDS011;57335;52.288;6.056;2023-12-20T05:09:39;11.27;;;2.17;;
69750;SDS011;57335;52.288;6.056;2023-12-20T05:12:05;13.43;;;2.28;;
69750;SDS011;57335;52.288;6.056;2023-12-20T05:14:32;16.58;;;2.53;;
69750;SDS011;57335;52.288;6.056;2023-12-20T05:16:59;14.30;;;2.05;;
69750;SDS011;57335;52.288;6.056;2023-12-20T05:19:25;11.27;;;2.35;;
69750;SDS011;57335;52.288;6.056;2023-12-20T05:21:52;12.50;;;2.20;;
69750;SDS011;57335;52.288;6.056;2023-12-20T05:24:19;17.45;;;2.20;;
69750;SDS011;57335;52.288;6.056;2023-12-20T05:26:45;10.43;;;2.00;;
69750;SDS011;57335;52.288;6.056;2023-12-20T05:29:15;12.38;;;2.05;;
69750;SDS011;57335;52.288;6.056;2023-12-20T05:31:41;15.02;;;2.72;;
69750;SDS011;57335;52.288;6.056;2023-12-20T05:34:08;17.75;;;2.83;;
69750;SDS011;57335;52.288;6.056;2023-12-20T05:36:34;12.27;;;2.42;;
69750;SDS011;57335;52.288;6.056;2023-12-20T05:39:01;14.80;;;3.13;;
69750;SDS011;57335;52.288;6.056;2023-12-20T05:41:27;8.93;;;2.45;;
69750;SDS011;57335;52.288;6.056;2023-12-20T05:43:54;17.48;;;2.47;;
69750;SDS011;57335;52.288;6.056;2023-12-20T05:46:20;14.93;;;2.55;;
69750;SDS011;57335;52.288;6.056;2023-12-20T05:48:48;13.52;;;2.28;;
69750;SDS011;57335;52.288;6.056;2023-12-20T05:51:15;20.58;;;3.10;;
69750;SDS011;57335;52.288;6.056;2023-12-20T05:53:41;10.95;;;2.33;;
69750;SDS011;57335;52.288;6.056;2023-12-20T05:56:08;19.05;;;2.72;;
69750;SDS011;57335;52.288;6.056;2023-12-20T05:58:34;14.80;;;2.30;;
69750;SDS011;57335;52.288;6.056;2023-12-20T06:01:00;14.00;;;2.58;;
69750;SDS011;57335;52.288;6.056;2023-12-20T06:03:30;16.85;;;2.45;;
69750;SDS011;57335;52.288;6.056;2023-12-20T06:05:56;15.70;;;2.20;;
69750;SDS011;57335;52.288;6.056;2023-12-20T06:08:38;15.48;;;2.40;;
69750;SDS011;57335;52.288;6.056;2023-12-20T06:11:05;14.15;;;2.00;;
69750;SDS011;57335;52.288;6.056;2023-12-20T06:13:32;13.20;;;2.08;;
69750;SDS011;57335;52.288;6.056;2023-12-20T06:15:58;14.75;;;2.60;;
69750;SDS011;57335;52.288;6.056;2023-12-20T06:18:25;12.93;;;2.17;;
69750;SDS011;57335;52.288;6.056;2023-12-20T06:20:52;14.95;;;2.28;;
69750;SDS011;57335;52.288;6.056;2023-12-20T06:23:18;10.52;;;2.75;;
69750;SDS011;57335;52.288;6.056;2023-12-20T06:25:45;15.52;;;2.15;;
69750;SDS011;57335;52.288;6.056;2023-12-20T06:28:11;17.63;;;2.75;;
69750;SDS011;57335;52.288;6.056;2023-12-20T06:30:40;16.33;;;2.30;;
69750;SDS011;57335;52.288;6.056;2023-12-20T06:33:07;16.48;;;2.30;;
69750;SDS011;57335;52.288;6.056;2023-12-20T06:35:36;13.70;;;2.55;;
69750;SDS011;57335;52.288;6.056;2023-12-20T06:38:03;17.30;;;2.85;;
69750;SDS011;57335;52.288;6.056;2023-12-20T06:40:29;12.63;;;2.25;;
69750;SDS011;57335;52.288;6.056;2023-12-20T06:42:56;14.55;;;2.60;;
69750;SDS011;57335;52.288;6.056;2023-12-20T06:45:34;20.95;;;2.65;;
69750;SDS011;57335;52.288;6.056;2023-12-20T06:48:00;10.95;;;2.33;;
69750;SDS011;57335;52.288;6.056;2023-12-20T06:50:27;12.90;;;2.03;;
69750;SDS011;57335;52.288;6.056;2023-12-20T06:52:53;10.50;;;1.80;;
69750;SDS011;57335;52.288;6.056;2023-12-20T06:55:20;19.35;;;2.58;;
69750;SDS011;57335;52.288;6.056;2023-12-20T06:57:47;12.20;;;1.80;;
69750;SDS011;57335;52.288;6.056;2023-12-20T07:00:14;13.50;;;2.38;;
69750;SDS011;57335;52.288;6.056;2023-12-20T07:02:40;9.80;;;1.83;;
69750;SDS011;57335;52.288;6.056;2023-12-20T07:05:07;12.68;;;1.88;;
69750;SDS011;57335;52.288;6.056;2023-12-20T07:07:34;14.57;;;2.20;;
69750;SDS011;57335;52.288;6.056;2023-12-20T07:10:01;10.88;;;2.25;;
69750;SDS011;57335;52.288;6.056;2023-12-20T07:12:27;13.75;;;2.10;;
69750;SDS011;57335;52.288;6.056;2023-12-20T07:14:54;13.50;;;2.17;;
69750;SDS011;57335;52.288;6.056;2023-12-20T07:17:22;10.85;;;2.10;;
69750;SDS011;57335;52.288;6.056;2023-12-20T07:19:49;11.93;;;2.22;;
69750;SDS011;57335;52.288;6.056;2023-12-20T07:22:15;11.80;;;2.60;;
69750;SDS011;57335;52.288;6.056;2023-12-20T07:24:42;12.55;;;1.80;;
69750;SDS011;57335;52.288;6.056;2023-12-20T07:27:08;7.85;;;1.80;;
69750;SDS011;57335;52.288;6.056;2023-12-20T07:29:35;13.45;;;2.35;;
69750;SDS011;57335;52.288;6.056;2023-12-20T07:32:01;14.07;;;2.45;;
69750;SDS011;57335;52.288;6.056;2023-12-20T07:34:28;10.57;;;2.13;;
69750;SDS011;57335;52.288;6.056;2023-12-20T07:36:55;11.52;;;2.30;;
69750;SDS011;57335;52.288;6.056;2023-12-20T07:39:21;13.50;;;2.55;;
69750;SDS011;57335;52.288;6.056;2023-12-20T07:41:48;9.45;;;2.00;;
69750;SDS011;57335;52.288;6.056;2023-12-20T07:44:14;8.80;;;1.90;;
69750;SDS011;57335;52.288;6.056;2023-12-20T07:46:41;13.13;;;2.78;;
69750;SDS011;57335;52.288;6.056;2023-12-20T07:49:08;9.63;;;2.30;;
69750;SDS011;57335;52.288;6.056;2023-12-20T07:51:36;15.93;;;2.25;;
69750;SDS011;57335;52.288;6.056;2023-12-20T07:54:03;15.15;;;2.65;;
69750;SDS011;57335;52.288;6.056;2023-12-20T07:56:31;11.27;;;1.90;;
69750;SDS011;57335;52.288;6.056;2023-12-20T07:58:57;13.13;;;2.40;;
69750;SDS011;57335;52.288;6.056;2023-12-20T08:01:26;13.27;;;2.38;;
69750;SDS011;57335;52.288;6.056;2023-12-20T08:03:52;13.65;;;2.58;;
69750;SDS011;57335;52.288;6.056;2023-12-20T08:06:19;12.88;;;2.17;;
69750;SDS011;57335;52.288;6.056;2023-12-20T08:08:45;13.02;;;2.40;;
69750;SDS011;57335;52.288;6.056;2023-12-20T08:11:20;15.13;;;2.42;;
69750;SDS011;57335;52.288;6.056;2023-12-20T08:13:47;15.43;;;2.28;;
69750;SDS011;57335;52.288;6.056;2023-12-20T08:16:13;11.68;;;2.30;;
69750;SDS011;57335;52.288;6.056;2023-12-20T08:18:42;10.88;;;2.40;;
69750;SDS011;57335;52.288;6.056;2023-12-20T08:21:08;16.20;;;2.25;;
69750;SDS011;57335;52.288;6.056;2023-12-20T08:23:35;10.98;;;2.20;;
69750;SDS011;57335;52.288;6.056;2023-12-20T08:26:05;12.93;;;1.73;;
69750;SDS011;57335;52.288;6.056;2023-12-20T08:28:32;13.55;;;2.03;;
69750;SDS011;57335;52.288;6.056;2023-12-20T08:30:59;15.35;;;3.10;;
69750;SDS011;57335;52.288;6.056;2023-12-20T08:33:26;12.63;;;2.47;;
69750;SDS011;57335;52.288;6.056;2023-12-20T08:35:52;13.35;;;2.20;;
69750;SDS011;57335;52.288;6.056;2023-12-20T08:38:19;15.50;;;2.72;;
69750;SDS011;57335;52.288;6.056;2023-12-20T08:40:45;13.55;;;2.60;;
69750;SDS011;57335;52.288;6.056;2023-12-20T08:43:12;14.73;;;2.33;;
69750;SDS011;57335;52.288;6.056;2023-12-20T08:45:39;13.35;;;2.45;;
69750;SDS011;57335;52.288;6.056;2023-12-20T08:48:06;14.30;;;2.45;;
69750;SDS011;57335;52.288;6.056;2023-12-20T08:50:35;14.07;;;2.50;;
69750;SDS011;57335;52.288;6.056;2023-12-20T08:53:03;13.20;;;2.17;;
69750;SDS011;57335;52.288;6.056;2023-12-20T08:55:29;14.70;;;2.45;;
69750;SDS011;57335;52.288;6.056;2023-12-20T08:57:57;11.75;;;2.58;;
69750;SDS011;57335;52.288;6.056;2023-12-20T09:00:24;15.50;;;2.60;;
69750;SDS011;57335;52.288;6.056;2023-12-20T09:02:54;21.08;;;3.30;;
69750;SDS011;57335;52.288;6.056;2023-12-20T09:05:20;17.52;;;3.13;;
69750;SDS011;57335;52.288;6.056;2023-12-20T09:07:47;12.98;;;2.60;;
69750;SDS011;57335;52.288;6.056;2023-12-20T09:10:14;18.55;;;2.88;;
69750;SDS011;57335;52.288;6.056;2023-12-20T09:12:43;17.38;;;2.33;;
69750;SDS011;57335;52.288;6.056;2023-12-20T09:15:10;18.27;;;2.75;;
69750;SDS011;57335;52.288;6.056;2023-12-20T09:17:36;14.95;;;2.28;;
69750;SDS011;57335;52.288;6.056;2023-12-20T09:20:03;11.82;;;2.42;;
69750;SDS011;57335;52.288;6.056;2023-12-20T09:22:33;10.45;;;2.33;;
69750;SDS011;57335;52.288;6.056;2023-12-20T09:25:00;17.42;;;2.63;;
69750;SDS011;57335;52.288;6.056;2023-12-20T09:27:28;12.38;;;2.10;;
69750;SDS011;57335;52.288;6.056;2023-12-20T09:29:54;13.77;;;3.17;;
69750;SDS011;57335;52.288;6.056;2023-12-20T09:32:21;14.30;;;2.10;;
69750;SDS011;57335;52.288;6.056;2023-12-20T09:34:47;13.48;;;2.20;;
69750;SDS011;57335;52.288;6.056;2023-12-20T09:37:15;9.82;;;1.90;;
69750;SDS011;57335;52.288;6.056;2023-12-20T09:39:41;12.82;;;2.35;;
69750;SDS011;57335;52.288;6.056;2023-12-20T09:42:08;15.52;;;2.20;;
69750;SDS011;57335;52.288;6.056;2023-12-20T09:44:37;11.95;;;2.28;;
69750;SDS011;57335;52.288;6.056;2023-12-20T09:47:07;15.52;;;2.53;;
69750;SDS011;57335;52.288;6.056;2023-12-20T09:49:34;12.85;;;2.38;;
69750;SDS011;57335;52.288;6.056;2023-12-20T09:52:01;12.02;;;2.20;;
69750;SDS011;57335;52.288;6.056;2023-12-20T09:54:32;10.98;;;2.47;;
69750;SDS011;57335;52.288;6.056;2023-12-20T09:56:58;11.57;;;2.08;;
69750;SDS011;57335;52.288;6.056;2023-12-20T09:59:25;16.58;;;2.40;;
69750;SDS011;57335;52.288;6.056;2023-12-20T10:01:51;13.65;;;2.72;;
69750;SDS011;57335;52.288;6.056;2023-12-20T10:06:56;16.70;;;2.83;;
69750;SDS011;57335;52.288;6.056;2023-12-20T10:09:23;14.65;;;2.22;;
69750;SDS011;57335;52.288;6.056;2023-12-20T10:11:50;14.48;;;2.72;;
69750;SDS011;57335;52.288;6.056;2023-12-20T10:14:20;14.85;;;2.60;;
69750;SDS011;57335;52.288;6.056;2023-12-20T10:16:49;12.50;;;2.60;;
69750;SDS011;57335;52.288;6.056;2023-12-20T10:19:16;14.98;;;2.75;;
69750;SDS011;57335;52.288;6.056;2023-12-20T10:21:44;16.73;;;2.60;;
69750;SDS011;57335;52.288;6.056;2023-12-20T10:24:15;14.73;;;2.42;;
69750;SDS011;57335;52.288;6.056;2023-12-20T10:26:43;13.63;;;2.20;;
69750;SDS011;57335;52.288;6.056;2023-12-20T10:29:10;12.90;;;2.08;;
69750;SDS011;57335;52.288;6.056;2023-12-20T10:31:36;17.10;;;2.42;;
69750;SDS011;57335;52.288;6.056;2023-12-20T10:34:05;13.68;;;2.63;;
69750;SDS011;57335;52.288;6.056;2023-12-20T10:36:32;13.23;;;2.65;;
69750;SDS011;57335;52.288;6.056;2023-12-20T10:38:59;14.80;;;2.47;;
69750;SDS011;57335;52.288;6.056;2023-12-20T10:41:26;12.48;;;2.45;;
69750;SDS011;57335;52.288;6.056;2023-12-20T10:44:03;11.55;;;2.08;;
69750;SDS011;57335;52.288;6.056;2023-12-20T10:46:33;12.05;;;2.75;;
69750;SDS011;57335;52.288;6.056;2023-12-20T10:49:03;11.80;;;2.00;;
69750;SDS011;57335;52.288;6.056;2023-12-20T10:51:31;12.52;;;2.55;;
69750;SDS011;57335;52.288;6.056;2023-12-20T10:54:00;12.80;;;2.22;;
69750;SDS011;57335;52.288;6.056;2023-12-20T10:56:26;10.90;;;2.05;;
69750;SDS011;57335;52.288;6.056;2023-12-20T10:58:58;10.70;;;2.08;;
69750;SDS011;57335;52.288;6.056;2023-12-20T11:01:30;12.63;;;2.20;;
69750;SDS011;57335;52.288;6.056;2023-12-20T11:03:58;10.20;;;2.15;;
69750;SDS011;57335;52.288;6.056;2023-12-20T11:11:51;9.50;;;1.90;;
69750;SDS011;57335;52.288;6.056;2023-12-20T11:14:30;13.23;;;2.58;;
69750;SDS011;57335;52.288;6.056;2023-12-20T11:17:05;11.85;;;2.38;;
69750;SDS011;57335;52.288;6.056;2023-12-20T11:19:36;11.57;;;2.30;;
69750;SDS011;57335;52.288;6.056;2023-12-20T11:22:04;18.65;;;2.67;;
69750;SDS011;57335;52.288;6.056;2023-12-20T11:24:32;9.75;;;2.00;;
69750;SDS011;57335;52.288;6.056;2023-12-20T11:27:00;11.55;;;2.42;;
69750;SDS011;57335;52.288;6.056;2023-12-20T11:29:34;10.18;;;2.22;;
69750;SDS011;57335;52.288;6.056;2023-12-20T11:32:03;10.75;;;1.83;;
69750;SDS011;57335;52.288;6.056;2023-12-20T11:34:53;10.25;;;1.98;;
69750;SDS011;57335;52.288;6.056;2023-12-20T11:37:35;13.02;;;2.10;;
69750;SDS011;57335;52.288;6.056;2023-12-20T11:42:33;10.55;;;2.10;;
69750;SDS011;57335;52.288;6.056;2023-12-20T11:45:04;7.00;;;1.90;;
69750;SDS011;57335;52.288;6.056;2023-12-20T11:47:31;11.20;;;2.10;;
69750;SDS011;57335;52.288;6.056;2023-12-20T11:49:58;9.57;;;2.40;;
69750;SDS011;57335;52.288;6.056;2023-12-20T11:52:26;13.30;;;2.58;;
69750;SDS011;57335;52.288;6.056;2023-12-20T11:54:53;10.10;;;2.17;;
69750;SDS011;57335;52.288;6.056;2023-12-20T11:57:19;8.95;;;1.48;;
69750;SDS011;57335;52.288;6.056;2023-12-20T11:59:46;10.00;;;1.83;;
69750;SDS011;57335;52.288;6.056;2023-12-20T12:02:12;10.88;;;2.22;;
69750;SDS011;57335;52.288;6.056;2023-12-20T12:04:42;9.32;;;1.88;;
69750;SDS011;57335;52.288;6.056;2023-12-20T12:07:09;9.07;;;1.85;;
69750;SDS011;57335;52.288;6.056;2023-12-20T12:09:36;9.93;;;1.85;;
69750;SDS011;57335;52.288;6.056;2023-12-20T12:12:02;11.38;;;2.05;;
69750;SDS011;57335;52.288;6.056;2023-12-20T12:14:29;9.57;;;2.03;;
69750;SDS011;57335;52.288;6.056;2023-12-20T12:16:55;9.27;;;1.73;;
69750;SDS011;57335;52.288;6.056;2023-12-20T12:19:23;8.90;;;1.80;;
69750;SDS011;57335;52.288;6.056;2023-12-20T12:21:51;10.63;;;2.15;;
69750;SDS011;57335;52.288;6.056;2023-12-20T12:24:29;10.63;;;2.00;;
69750;SDS011;57335;52.288;6.056;2023-12-20T12:26:57;10.13;;;2.00;;
69750;SDS011;57335;52.288;6.056;2023-12-20T12:29:24;13.75;;;2.10;;
69750;SDS011;57335;52.288;6.056;2023-12-20T12:31:50;10.15;;;1.88;;
69750;SDS011;57335;52.288;6.056;2023-12-20T12:34:17;10.15;;;2.00;;
69750;SDS011;57335;52.288;6.056;2023-12-20T12:36:44;11.00;;;1.83;;
69750;SDS011;57335;52.288;6.056;2023-12-20T12:39:14;8.10;;;1.80;;
69750;SDS011;57335;52.288;6.056;2023-12-20T12:41:41;9.23;;;1.77;;
69750;SDS011;57335;52.288;6.056;2023-12-20T12:44:08;15.90;;;2.00;;
69750;SDS011;57335;52.288;6.056;2023-12-20T12:46:46;10.15;;;2.33;;
69750;SDS011;57335;52.288;6.056;2023-12-20T12:49:13;9.48;;;2.35;;
69750;SDS011;57335;52.288;6.056;2023-12-20T12:51:39;8.88;;;1.50;;
69750;SDS011;57335;52.288;6.056;2023-12-20T12:54:06;9.40;;;1.95;;
69750;SDS011;57335;52.288;6.056;2023-12-20T12:56:32;9.00;;;1.88;;
69750;SDS011;57335;52.288;6.056;2023-12-20T12:58:59;5.82;;;1.65;;
69750;SDS011;57335;52.288;6.056;2023-12-20T13:01:26;10.50;;;1.80;;
69750;SDS011;57335;52.288;6.056;2023-12-20T13:03:52;9.18;;;1.60;;
69750;SDS011;57335;52.288;6.056;2023-12-20T13:06:19;9.63;;;1.80;;
69750;SDS011;57335;52.288;6.056;2023-12-20T13:08:46;8.90;;;1.77;;
69750;SDS011;57335;52.288;6.056;2023-12-20T13:11:12;10.40;;;1.98;;
69750;SDS011;57335;52.288;6.056;2023-12-20T13:13:39;7.78;;;1.73;;
69750;SDS011;57335;52.288;6.056;2023-12-20T13:16:05;11.07;;;1.73;;
69750;SDS011;57335;52.288;6.056;2023-12-20T13:18:32;11.82;;;2.17;;
69750;SDS011;57335;52.288;6.056;2023-12-20T13:20:59;7.55;;;1.52;;
69750;SDS011;57335;52.288;6.056;2023-12-20T13:23:25;8.70;;;1.50;;
69750;SDS011;57335;52.288;6.056;2023-12-20T13:25:52;11.13;;;1.70;;
69750;SDS011;57335;52.288;6.056;2023-12-20T13:28:18;7.45;;;1.77;;
69750;SDS011;57335;52.288;6.056;2023-12-20T13:30:44;10.68;;;1.70;;
69750;SDS011;57335;52.288;6.056;2023-12-20T13:33:11;10.20;;;2.45;;
69750;SDS011;57335;52.288;6.056;2023-12-20T13:35:38;10.23;;;2.05;;
69750;SDS011;57335;52.288;6.056;2023-12-20T13:38:05;8.50;;;1.92;;
69750;SDS011;57335;52.288;6.056;2023-12-20T13:40:32;8.73;;;1.70;;
69750;SDS011;57335;52.288;6.056;2023-12-20T13:42:59;8.73;;;1.67;;
69750;SDS011;57335;52.288;6.056;2023-12-20T13:45:26;10.90;;;1.92;;
69750;SDS011;57335;52.288;6.056;2023-12-20T13:47:52;9.40;;;1.55;;
69750;SDS011;57335;52.288;6.056;2023-12-20T13:50:19;8.30;;;1.70;;
69750;SDS011;57335;52.288;6.056;2023-12-20T13:52:45;16.27;;;1.92;;
69750;SDS011;57335;52.288;6.056;2023-12-20T13:55:12;9.48;;;1.80;;
69750;SDS011;57335;52.288;6.056;2023-12-20T13:57:39;8.68;;;1.50;;
69750;SDS011;57335;52.288;6.056;2023-12-20T14:00:21;13.07;;;2.72;;
69750;SDS011;57335;52.288;6.056;2023-12-20T14:02:47;10.80;;;2.20;;
69750;SDS011;57335;52.288;6.056;2023-12-20T14:05:15;9.95;;;1.92;;
69750;SDS011;57335;52.288;6.056;2023-12-20T14:07:44;9.85;;;1.75;;
69750;SDS011;57335;52.288;6.056;2023-12-20T14:10:12;11.18;;;2.00;;
69750;SDS011;57335;52.288;6.056;2023-12-20T14:12:40;13.65;;;1.95;;
69750;SDS011;57335;52.288;6.056;2023-12-20T14:15:06;12.48;;;2.28;;
69750;SDS011;57335;52.288;6.056;2023-12-20T14:17:37;9.10;;;1.67;;
69750;SDS011;57335;52.288;6.056;2023-12-20T14:20:05;7.55;;;1.42;;
69750;SDS011;57335;52.288;6.056;2023-12-20T14:22:33;10.32;;;2.03;;
69750;SDS011;57335;52.288;6.056;2023-12-20T14:25:00;12.13;;;2.00;;
69750;SDS011;57335;52.288;6.056;2023-12-20T14:27:27;13.45;;;2.53;;
69750;SDS011;57335;52.288;6.056;2023-12-20T14:29:54;10.98;;;1.80;;
69750;SDS011;57335;52.288;6.056;2023-12-20T14:32:21;9.88;;;2.05;;
69750;SDS011;57335;52.288;6.056;2023-12-20T14:34:47;11.30;;;2.10;;
69750;SDS011;57335;52.288;6.056;2023-12-20T14:37:14;9.38;;;2.00;;
69750;SDS011;57335;52.288;6.056;2023-12-20T14:39:40;8.48;;;1.83;;
69750;SDS011;57335;52.288;6.056;2023-12-20T14:42:08;10.90;;;1.88;;
69750;SDS011;57335;52.288;6.056;2023-12-20T14:44:38;10.82;;;1.88;;
69750;SDS011;57335;52.288;6.056;2023-12-20T14:47:04;12.18;;;2.03;;
69750;SDS011;57335;52.288;6.056;2023-12-20T14:49:31;9.30;;;1.90;;
69750;SDS011;57335;52.288;6.056;2023-12-20T14:51:58;12.43;;;2.10;;